Las Vegas, Nevada
Traffic Map
Current Weather Conditions
Las Vegas, Nevada
Few Clouds
Few Clouds
33°
Feels Like: 33°
Wind Chill: 33° Ceiling: Unl
Heat Index: 33° Visibility: 10mi
Dew Point: Wind: 3mph
Humidity: 19% Direction: 210° (SSW)
Pressure: 29.79in Gusts: 0mph
Raw Report DataKLAS 281156Z 21003KT 10SM FEW200 33/07 A2979 RMK AO2 SLP053 T03330067 10389 20333 53004
Traffic Incident Summary
Active as of:
Severity:
Category:
InformationThere was an issue retrieving the traffic information for this location. Please try a different location or try again shortly.
Advertisements
Track Severe Weather on mobile